Burnham, Maine
Current Conditions -  °F | °C
As of 7:55 AM on Thursday 23 Oct 2014 (Local Time) from KWVL Reporting Station
Overcast Overcast  
Wind Chill:   Ceiling: 800
Heat Index:   Visibility: 8mi
Dew Point:   Wind: 18mph
Humidity: 76%   Direction: 30°NNE
Pressure: 29.89"   Gusts: 28mph
Location:  44.69°N, 69.43°W
Report Text: KWVL 231155Z 03016G24KT 8SM BKN008 OVC014 08/04 A2989 RMK AO1 P0010 60035 70058 10080 20070 57014
Loading
Personal Weather Stations






























Interactive Weather Map
Tropical Storm Tracking
New forecast layout! Learn more

10-Day Weather Forecast

Advertisements
Track Severe Weather on mobile